sensor_id;sensor_type;location;lat;lon;timestamp;P1;durP1;ratioP1;P2;durP2;ratioP2
49147;SDS011;41980;45.550;12.070;2023-06-26T00:05:51;3.97;;;2.42;;
49147;SDS011;41980;45.550;12.070;2023-06-26T00:11:53;3.30;;;2.10;;
49147;SDS011;41980;45.550;12.070;2023-06-26T00:17:55;3.28;;;2.28;;
49147;SDS011;41980;45.550;12.070;2023-06-26T00:23:57;3.22;;;2.30;;
49147;SDS011;41980;45.550;12.070;2023-06-26T00:29:59;4.45;;;2.45;;
49147;SDS011;41980;45.550;12.070;2023-06-26T00:36:01;3.78;;;2.50;;
49147;SDS011;41980;45.550;12.070;2023-06-26T00:42:03;3.25;;;2.22;;
49147;SDS011;41980;45.550;12.070;2023-06-26T00:48:05;4.43;;;3.00;;
49147;SDS011;41980;45.550;12.070;2023-06-26T00:54:07;3.80;;;2.78;;
49147;SDS011;41980;45.550;12.070;2023-06-26T01:00:09;4.53;;;2.92;;
49147;SDS011;41980;45.550;12.070;2023-06-26T01:06:12;5.13;;;3.05;;
49147;SDS011;41980;45.550;12.070;2023-06-26T01:12:16;4.40;;;2.80;;
49147;SDS011;41980;45.550;12.070;2023-06-26T01:18:18;4.38;;;3.00;;
49147;SDS011;41980;45.550;12.070;2023-06-26T01:24:21;5.20;;;3.03;;
49147;SDS011;41980;45.550;12.070;2023-06-26T01:30:28;6.90;;;3.80;;
49147;SDS011;41980;45.550;12.070;2023-06-26T01:36:31;5.07;;;2.83;;
49147;SDS011;41980;45.550;12.070;2023-06-26T01:42:33;4.43;;;3.08;;
49147;SDS011;41980;45.550;12.070;2023-06-26T01:48:39;5.63;;;3.30;;
49147;SDS011;41980;45.550;12.070;2023-06-26T01:54:52;4.05;;;2.78;;
49147;SDS011;41980;45.550;12.070;2023-06-26T02:01:01;3.72;;;2.42;;
49147;SDS011;41980;45.550;12.070;2023-06-26T02:07:03;3.38;;;2.20;;
49147;SDS011;41980;45.550;12.070;2023-06-26T02:13:07;4.32;;;3.05;;
49147;SDS011;41980;45.550;12.070;2023-06-26T02:19:09;5.43;;;3.28;;
49147;SDS011;41980;45.550;12.070;2023-06-26T02:25:11;3.38;;;2.22;;
49147;SDS011;41980;45.550;12.070;2023-06-26T02:31:13;4.20;;;2.65;;
49147;SDS011;41980;45.550;12.070;2023-06-26T02:37:15;4.57;;;2.63;;
49147;SDS011;41980;45.550;12.070;2023-06-26T02:43:17;3.42;;;2.33;;
49147;SDS011;41980;45.550;12.070;2023-06-26T02:49:20;4.22;;;2.63;;
49147;SDS011;41980;45.550;12.070;2023-06-26T02:55:22;3.60;;;1.92;;
49147;SDS011;41980;45.550;12.070;2023-06-26T03:01:24;5.15;;;2.60;;
49147;SDS011;41980;45.550;12.070;2023-06-26T03:07:27;4.28;;;2.60;;
49147;SDS011;41980;45.550;12.070;2023-06-26T03:13:29;3.88;;;2.47;;
49147;SDS011;41980;45.550;12.070;2023-06-26T03:19:31;4.25;;;2.92;;
49147;SDS011;41980;45.550;12.070;2023-06-26T03:25:37;4.13;;;2.85;;
49147;SDS011;41980;45.550;12.070;2023-06-26T03:31:52;4.00;;;2.60;;
49147;SDS011;41980;45.550;12.070;2023-06-26T03:37:56;4.88;;;3.20;;
49147;SDS011;41980;45.550;12.070;2023-06-26T03:43:59;4.05;;;2.83;;
49147;SDS011;41980;45.550;12.070;2023-06-26T03:50:08;3.83;;;2.58;;
49147;SDS011;41980;45.550;12.070;2023-06-26T03:56:12;3.53;;;2.20;;
49147;SDS011;41980;45.550;12.070;2023-06-26T04:02:15;3.97;;;2.53;;
49147;SDS011;41980;45.550;12.070;2023-06-26T04:08:18;3.42;;;2.17;;
49147;SDS011;41980;45.550;12.070;2023-06-26T04:14:24;4.13;;;2.67;;
49147;SDS011;41980;45.550;12.070;2023-06-26T04:20:26;3.90;;;2.60;;
49147;SDS011;41980;45.550;12.070;2023-06-26T04:26:28;2.88;;;1.95;;
49147;SDS011;41980;45.550;12.070;2023-06-26T04:32:30;4.78;;;3.13;;
49147;SDS011;41980;45.550;12.070;2023-06-26T04:38:32;5.80;;;3.65;;
49147;SDS011;41980;45.550;12.070;2023-06-26T04:44:34;4.50;;;2.95;;
49147;SDS011;41980;45.550;12.070;2023-06-26T04:50:39;4.10;;;2.78;;
49147;SDS011;41980;45.550;12.070;2023-06-26T04:56:41;4.45;;;2.83;;
49147;SDS011;41980;45.550;12.070;2023-06-26T05:02:45;3.05;;;2.30;;
49147;SDS011;41980;45.550;12.070;2023-06-26T05:08:47;5.95;;;3.53;;
49147;SDS011;41980;45.550;12.070;2023-06-26T05:14:49;4.80;;;3.40;;
49147;SDS011;41980;45.550;12.070;2023-06-26T05:20:53;3.67;;;2.90;;
49147;SDS011;41980;45.550;12.070;2023-06-26T05:26:55;4.93;;;3.20;;
49147;SDS011;41980;45.550;12.070;2023-06-26T05:32:59;6.40;;;3.03;;
49147;SDS011;41980;45.550;12.070;2023-06-26T05:39:02;6.68;;;3.45;;
49147;SDS011;41980;45.550;12.070;2023-06-26T05:45:05;3.70;;;2.90;;
49147;SDS011;41980;45.550;12.070;2023-06-26T05:51:07;4.47;;;3.28;;
49147;SDS011;41980;45.550;12.070;2023-06-26T05:57:10;4.15;;;2.90;;
49147;SDS011;41980;45.550;12.070;2023-06-26T06:03:14;7.07;;;4.85;;
49147;SDS011;41980;45.550;12.070;2023-06-26T06:09:16;4.00;;;2.95;;
49147;SDS011;41980;45.550;12.070;2023-06-26T06:15:18;5.07;;;4.03;;
49147;SDS011;41980;45.550;12.070;2023-06-26T06:21:20;4.45;;;3.40;;
49147;SDS011;41980;45.550;12.070;2023-06-26T06:27:23;6.85;;;4.75;;
49147;SDS011;41980;45.550;12.070;2023-06-26T06:33:25;5.43;;;3.22;;
49147;SDS011;41980;45.550;12.070;2023-06-26T06:39:27;2.55;;;2.10;;
49147;SDS011;41980;45.550;12.070;2023-06-26T06:45:29;4.28;;;3.83;;
49147;SDS011;41980;45.550;12.070;2023-06-26T06:51:31;4.65;;;2.42;;
49147;SDS011;41980;45.550;12.070;2023-06-26T06:57:33;5.15;;;2.83;;
49147;SDS011;41980;45.550;12.070;2023-06-26T07:03:39;4.07;;;3.60;;
49147;SDS011;41980;45.550;12.070;2023-06-26T07:09:41;3.28;;;2.40;;
49147;SDS011;41980;45.550;12.070;2023-06-26T07:15:43;3.50;;;2.13;;
49147;SDS011;41980;45.550;12.070;2023-06-26T07:21:46;4.72;;;2.58;;
49147;SDS011;41980;45.550;12.070;2023-06-26T07:27:48;4.15;;;2.55;;
49147;SDS011;41980;45.550;12.070;2023-06-26T07:33:50;2.80;;;2.00;;
49147;SDS011;41980;45.550;12.070;2023-06-26T07:39:53;2.67;;;2.22;;
49147;SDS011;41980;45.550;12.070;2023-06-26T07:45:55;2.67;;;1.90;;
49147;SDS011;41980;45.550;12.070;2023-06-26T07:51:59;3.78;;;1.58;;
49147;SDS011;41980;45.550;12.070;2023-06-26T07:58:01;2.70;;;1.73;;
49147;SDS011;41980;45.550;12.070;2023-06-26T08:04:04;3.63;;;2.40;;
49147;SDS011;41980;45.550;12.070;2023-06-26T08:10:06;3.33;;;2.00;;
49147;SDS011;41980;45.550;12.070;2023-06-26T08:16:08;2.97;;;1.80;;
49147;SDS011;41980;45.550;12.070;2023-06-26T08:22:10;2.70;;;1.77;;
49147;SDS011;41980;45.550;12.070;2023-06-26T08:28:12;3.47;;;1.60;;
49147;SDS011;41980;45.550;12.070;2023-06-26T08:34:17;2.53;;;1.83;;
49147;SDS011;41980;45.550;12.070;2023-06-26T08:40:19;2.92;;;2.00;;
49147;SDS011;41980;45.550;12.070;2023-06-26T08:46:22;2.60;;;1.73;;
49147;SDS011;41980;45.550;12.070;2023-06-26T08:52:25;3.33;;;1.70;;
49147;SDS011;41980;45.550;12.070;2023-06-26T08:58:32;2.80;;;1.63;;
49147;SDS011;41980;45.550;12.070;2023-06-26T09:04:37;2.60;;;1.70;;
49147;SDS011;41980;45.550;12.070;2023-06-26T09:10:41;3.08;;;1.95;;
49147;SDS011;41980;45.550;12.070;2023-06-26T09:16:43;5.35;;;1.90;;
49147;SDS011;41980;45.550;12.070;2023-06-26T09:22:47;2.63;;;1.75;;
49147;SDS011;41980;45.550;12.070;2023-06-26T09:28:49;3.75;;;1.52;;
49147;SDS011;41980;45.550;12.070;2023-06-26T09:34:55;2.88;;;2.00;;
49147;SDS011;41980;45.550;12.070;2023-06-26T09:40:59;2.80;;;1.70;;
49147;SDS011;41980;45.550;12.070;2023-06-26T09:47:02;2.42;;;1.50;;
49147;SDS011;41980;45.550;12.070;2023-06-26T09:59:12;3.10;;;2.00;;
49147;SDS011;41980;45.550;12.070;2023-06-26T10:05:15;6.88;;;2.33;;
49147;SDS011;41980;45.550;12.070;2023-06-26T10:11:19;2.97;;;1.80;;
49147;SDS011;41980;45.550;12.070;2023-06-26T10:17:22;2.63;;;1.65;;
49147;SDS011;41980;45.550;12.070;2023-06-26T10:23:29;3.17;;;1.83;;
49147;SDS011;41980;45.550;12.070;2023-06-26T10:29:32;2.20;;;1.50;;
49147;SDS011;41980;45.550;12.070;2023-06-26T10:41:43;2.80;;;1.57;;
49147;SDS011;41980;45.550;12.070;2023-06-26T10:47:46;3.58;;;1.55;;
49147;SDS011;41980;45.550;12.070;2023-06-26T10:53:53;2.28;;;1.58;;
49147;SDS011;41980;45.550;12.070;2023-06-26T11:06:13;3.38;;;2.20;;
49147;SDS011;41980;45.550;12.070;2023-06-26T11:12:32;3.40;;;2.10;;
49147;SDS011;41980;45.550;12.070;2023-06-26T11:18:38;2.15;;;1.60;;
49147;SDS011;41980;45.550;12.070;2023-06-26T11:24:40;2.95;;;2.00;;
49147;SDS011;41980;45.550;12.070;2023-06-26T11:30:44;3.28;;;2.25;;
49147;SDS011;41980;45.550;12.070;2023-06-26T11:36:48;2.95;;;1.90;;
49147;SDS011;41980;45.550;12.070;2023-06-26T11:42:51;8.18;;;2.05;;
49147;SDS011;41980;45.550;12.070;2023-06-26T11:48:53;2.78;;;2.10;;
49147;SDS011;41980;45.550;12.070;2023-06-26T11:54:55;2.78;;;2.17;;
49147;SDS011;41980;45.550;12.070;2023-06-26T12:00:58;2.75;;;1.88;;
49147;SDS011;41980;45.550;12.070;2023-06-26T12:07:00;3.53;;;1.80;;
49147;SDS011;41980;45.550;12.070;2023-06-26T12:13:05;3.08;;;2.15;;
49147;SDS011;41980;45.550;12.070;2023-06-26T12:19:09;5.07;;;2.08;;
49147;SDS011;41980;45.550;12.070;2023-06-26T12:25:11;3.25;;;2.10;;
49147;SDS011;41980;45.550;12.070;2023-06-26T12:31:15;3.60;;;1.98;;
49147;SDS011;41980;45.550;12.070;2023-06-26T12:37:18;3.22;;;2.20;;
49147;SDS011;41980;45.550;12.070;2023-06-26T12:55:36;2.40;;;1.70;;
49147;SDS011;41980;45.550;12.070;2023-06-26T13:01:38;3.22;;;2.40;;
49147;SDS011;41980;45.550;12.070;2023-06-26T13:07:40;2.97;;;2.03;;
49147;SDS011;41980;45.550;12.070;2023-06-26T13:13:42;3.10;;;1.90;;
49147;SDS011;41980;45.550;12.070;2023-06-26T13:19:44;4.90;;;2.80;;
49147;SDS011;41980;45.550;12.070;2023-06-26T13:25:46;3.83;;;2.10;;
49147;SDS011;41980;45.550;12.070;2023-06-26T13:31:48;2.88;;;1.83;;
49147;SDS011;41980;45.550;12.070;2023-06-26T13:37:50;2.70;;;2.17;;
49147;SDS011;41980;45.550;12.070;2023-06-26T13:43:53;2.50;;;1.80;;
49147;SDS011;41980;45.550;12.070;2023-06-26T13:49:55;3.17;;;2.38;;
49147;SDS011;41980;45.550;12.070;2023-06-26T13:55:57;3.63;;;2.63;;
49147;SDS011;41980;45.550;12.070;2023-06-26T14:01:59;6.50;;;2.55;;
49147;SDS011;41980;45.550;12.070;2023-06-26T14:08:02;3.85;;;2.22;;
49147;SDS011;41980;45.550;12.070;2023-06-26T14:14:05;2.60;;;1.98;;
49147;SDS011;41980;45.550;12.070;2023-06-26T14:20:08;3.42;;;2.40;;
49147;SDS011;41980;45.550;12.070;2023-06-26T14:26:13;5.32;;;2.58;;
49147;SDS011;41980;45.550;12.070;2023-06-26T14:32:16;3.50;;;2.30;;
49147;SDS011;41980;45.550;12.070;2023-06-26T14:38:18;6.65;;;2.80;;
49147;SDS011;41980;45.550;12.070;2023-06-26T14:44:20;3.97;;;2.47;;
49147;SDS011;41980;45.550;12.070;2023-06-26T14:50:21;3.88;;;2.15;;
49147;SDS011;41980;45.550;12.070;2023-06-26T14:56:24;5.78;;;2.65;;
49147;SDS011;41980;45.550;12.070;2023-06-26T15:02:26;3.47;;;2.75;;
49147;SDS011;41980;45.550;12.070;2023-06-26T15:08:28;3.70;;;2.50;;
49147;SDS011;41980;45.550;12.070;2023-06-26T15:14:30;2.95;;;2.38;;
49147;SDS011;41980;45.550;12.070;2023-06-26T15:20:32;3.78;;;2.63;;
49147;SDS011;41980;45.550;12.070;2023-06-26T15:26:34;4.50;;;2.50;;
49147;SDS011;41980;45.550;12.070;2023-06-26T15:32:37;4.28;;;2.75;;
49147;SDS011;41980;45.550;12.070;2023-06-26T15:38:39;4.78;;;2.40;;
49147;SDS011;41980;45.550;12.070;2023-06-26T15:44:41;5.15;;;2.95;;
49147;SDS011;41980;45.550;12.070;2023-06-26T15:50:43;4.43;;;3.00;;
49147;SDS011;41980;45.550;12.070;2023-06-26T15:56:47;3.45;;;2.20;;
49147;SDS011;41980;45.550;12.070;2023-06-26T16:02:49;3.10;;;2.30;;
49147;SDS011;41980;45.550;12.070;2023-06-26T16:08:51;3.47;;;2.58;;
49147;SDS011;41980;45.550;12.070;2023-06-26T16:14:54;3.20;;;2.35;;
49147;SDS011;41980;45.550;12.070;2023-06-26T16:20:56;3.63;;;2.30;;
49147;SDS011;41980;45.550;12.070;2023-06-26T16:26:58;4.13;;;2.22;;
49147;SDS011;41980;45.550;12.070;2023-06-26T16:33:00;2.47;;;1.67;;
49147;SDS011;41980;45.550;12.070;2023-06-26T16:39:02;3.75;;;2.33;;
49147;SDS011;41980;45.550;12.070;2023-06-26T16:45:04;4.05;;;2.65;;
49147;SDS011;41980;45.550;12.070;2023-06-26T16:51:08;3.22;;;2.63;;
49147;SDS011;41980;45.550;12.070;2023-06-26T16:57:10;3.80;;;2.42;;
49147;SDS011;41980;45.550;12.070;2023-06-26T17:03:12;3.83;;;2.25;;
49147;SDS011;41980;45.550;12.070;2023-06-26T17:09:14;2.90;;;2.05;;
49147;SDS011;41980;45.550;12.070;2023-06-26T17:15:16;2.65;;;1.92;;
49147;SDS011;41980;45.550;12.070;2023-06-26T17:21:18;3.22;;;2.10;;
49147;SDS011;41980;45.550;12.070;2023-06-26T17:27:21;4.63;;;2.20;;
49147;SDS011;41980;45.550;12.070;2023-06-26T17:33:28;3.35;;;2.35;;
49147;SDS011;41980;45.550;12.070;2023-06-26T17:39:30;3.88;;;1.92;;
49147;SDS011;41980;45.550;12.070;2023-06-26T17:45:33;3.38;;;2.17;;
49147;SDS011;41980;45.550;12.070;2023-06-26T17:51:35;4.13;;;2.25;;
49147;SDS011;41980;45.550;12.070;2023-06-26T17:57:37;2.90;;;2.15;;
49147;SDS011;41980;45.550;12.070;2023-06-26T18:03:40;5.28;;;2.33;;
49147;SDS011;41980;45.550;12.070;2023-06-26T18:09:42;3.00;;;1.85;;
49147;SDS011;41980;45.550;12.070;2023-06-26T18:15:44;2.60;;;1.98;;
49147;SDS011;41980;45.550;12.070;2023-06-26T18:21:47;3.40;;;1.95;;
49147;SDS011;41980;45.550;12.070;2023-06-26T18:27:48;2.72;;;1.60;;
49147;SDS011;41980;45.550;12.070;2023-06-26T18:33:51;2.95;;;1.85;;
49147;SDS011;41980;45.550;12.070;2023-06-26T18:39:54;2.90;;;1.77;;
49147;SDS011;41980;45.550;12.070;2023-06-26T18:45:56;2.42;;;1.65;;
49147;SDS011;41980;45.550;12.070;2023-06-26T18:51:58;2.97;;;1.75;;
49147;SDS011;41980;45.550;12.070;2023-06-26T18:58:00;3.00;;;1.80;;
49147;SDS011;41980;45.550;12.070;2023-06-26T19:04:03;2.78;;;1.92;;
49147;SDS011;41980;45.550;12.070;2023-06-26T19:10:05;3.63;;;2.40;;
49147;SDS011;41980;45.550;12.070;2023-06-26T19:16:07;2.22;;;1.60;;
49147;SDS011;41980;45.550;12.070;2023-06-26T19:22:10;3.38;;;1.63;;
49147;SDS011;41980;45.550;12.070;2023-06-26T19:28:13;4.20;;;3.03;;
49147;SDS011;41980;45.550;12.070;2023-06-26T19:34:17;2.95;;;2.00;;
49147;SDS011;41980;45.550;12.070;2023-06-26T19:40:19;2.40;;;1.70;;
49147;SDS011;41980;45.550;12.070;2023-06-26T19:46:22;2.97;;;1.60;;
49147;SDS011;41980;45.550;12.070;2023-06-26T19:52:25;2.47;;;1.75;;
49147;SDS011;41980;45.550;12.070;2023-06-26T19:58:27;2.38;;;1.67;;
49147;SDS011;41980;45.550;12.070;2023-06-26T20:04:29;2.63;;;2.00;;
49147;SDS011;41980;45.550;12.070;2023-06-26T20:10:31;2.83;;;1.65;;
49147;SDS011;41980;45.550;12.070;2023-06-26T20:16:33;3.33;;;1.58;;
49147;SDS011;41980;45.550;12.070;2023-06-26T20:22:35;2.45;;;1.50;;
49147;SDS011;41980;45.550;12.070;2023-06-26T20:28:37;2.90;;;2.20;;
49147;SDS011;41980;45.550;12.070;2023-06-26T20:34:39;2.63;;;1.80;;
49147;SDS011;41980;45.550;12.070;2023-06-26T20:40:44;2.40;;;1.60;;
49147;SDS011;41980;45.550;12.070;2023-06-26T20:46:46;3.30;;;2.20;;
49147;SDS011;41980;45.550;12.070;2023-06-26T20:59:00;3.03;;;1.60;;
49147;SDS011;41980;45.550;12.070;2023-06-26T21:05:02;2.63;;;1.83;;
49147;SDS011;41980;45.550;12.070;2023-06-26T21:11:04;2.70;;;1.70;;
49147;SDS011;41980;45.550;12.070;2023-06-26T21:17:06;2.15;;;1.42;;
49147;SDS011;41980;45.550;12.070;2023-06-26T21:23:08;2.80;;;1.55;;
49147;SDS011;41980;45.550;12.070;2023-06-26T21:29:11;3.63;;;2.03;;
49147;SDS011;41980;45.550;12.070;2023-06-26T21:35:13;2.40;;;1.48;;
49147;SDS011;41980;45.550;12.070;2023-06-26T21:41:15;2.35;;;1.42;;
49147;SDS011;41980;45.550;12.070;2023-06-26T21:47:17;3.58;;;1.88;;
49147;SDS011;41980;45.550;12.070;2023-06-26T21:53:19;2.88;;;2.10;;
49147;SDS011;41980;45.550;12.070;2023-06-26T21:59:21;4.30;;;2.20;;
49147;SDS011;41980;45.550;12.070;2023-06-26T22:05:23;3.30;;;2.22;;
49147;SDS011;41980;45.550;12.070;2023-06-26T22:11:25;3.28;;;2.10;;
49147;SDS011;41980;45.550;12.070;2023-06-26T22:17:28;2.95;;;2.08;;
49147;SDS011;41980;45.550;12.070;2023-06-26T22:23:32;3.67;;;2.42;;
49147;SDS011;41980;45.550;12.070;2023-06-26T22:29:34;4.20;;;2.35;;
49147;SDS011;41980;45.550;12.070;2023-06-26T22:35:36;3.42;;;2.20;;
49147;SDS011;41980;45.550;12.070;2023-06-26T22:41:38;3.08;;;2.00;;
49147;SDS011;41980;45.550;12.070;2023-06-26T22:47:41;3.08;;;1.88;;
49147;SDS011;41980;45.550;12.070;2023-06-26T22:53:45;3.25;;;1.75;;
49147;SDS011;41980;45.550;12.070;2023-06-26T22:59:48;3.05;;;2.17;;
49147;SDS011;41980;45.550;12.070;2023-06-26T23:05:50;3.08;;;2.05;;
49147;SDS011;41980;45.550;12.070;2023-06-26T23:11:58;2.90;;;1.90;;
49147;SDS011;41980;45.550;12.070;2023-06-26T23:18:00;3.10;;;2.17;;
49147;SDS011;41980;45.550;12.070;2023-06-26T23:24:02;2.92;;;2.10;;
49147;SDS011;41980;45.550;12.070;2023-06-26T23:30:04;3.38;;;2.63;;
49147;SDS011;41980;45.550;12.070;2023-06-26T23:36:08;3.30;;;2.10;;
49147;SDS011;41980;45.550;12.070;2023-06-26T23:42:10;3.28;;;2.20;;
49147;SDS011;41980;45.550;12.070;2023-06-26T23:48:12;4.78;;;2.38;;
49147;SDS011;41980;45.550;12.070;2023-06-26T23:54:14;3.45;;;2.53;;
